createdAt,value
2023-04-17T00:04:15.653Z,92.60
2023-04-17T00:09:17.759Z,92.10
2023-04-17T00:14:19.607Z,92.47
2023-04-17T00:19:21.744Z,92.58
2023-04-17T00:24:23.530Z,92.54
2023-04-17T00:29:25.471Z,91.76
2023-04-17T00:34:27.235Z,91.92
2023-04-17T00:39:28.985Z,91.98
2023-04-17T00:44:30.738Z,92.01
2023-04-17T00:49:33.064Z,92.07
2023-04-17T00:54:35.949Z,92.34
2023-04-17T00:59:39.954Z,90.83
2023-04-17T01:04:41.940Z,92.10
2023-04-17T01:09:43.814Z,91.48
2023-04-17T01:14:45.889Z,90.82
2023-04-17T01:19:49.762Z,90.61
2023-04-17T01:24:51.518Z,90.96
2023-04-17T01:29:53.290Z,91.02
2023-04-17T01:34:55.240Z,90.85
2023-04-17T01:39:59.529Z,90.65
2023-04-17T01:45:01.292Z,90.60
2023-04-17T01:50:04.108Z,90.15
2023-04-17T01:55:06.874Z,89.74
2023-04-17T02:00:10.778Z,90.87
2023-04-17T02:05:12.690Z,90.75
2023-04-17T02:10:14.497Z,90.17
2023-04-17T02:15:16.351Z,89.95
2023-04-17T02:20:18.175Z,89.51
2023-04-17T02:25:19.922Z,90.02
2023-04-17T02:30:26.232Z,90.04
2023-04-17T02:35:31.608Z,90.55
2023-04-17T02:40:33.363Z,90.30
2023-04-17T02:45:35.568Z,90.33
2023-04-17T02:50:37.333Z,89.92
2023-04-17T02:55:39.245Z,90.94
2023-04-17T03:00:41.186Z,90.45
2023-04-17T03:05:43.205Z,90.96
2023-04-17T03:10:45.234Z,91.41
2023-04-17T03:15:47.000Z,91.29
2023-04-17T03:20:48.830Z,91.72
2023-04-17T03:25:51.470Z,91.01
2023-04-17T03:30:54.859Z,91.33
2023-04-17T03:35:56.610Z,91.29
2023-04-17T03:40:58.613Z,91.81
2023-04-17T03:46:01.552Z,91.73
2023-04-17T03:51:03.728Z,90.89
2023-04-17T03:56:05.958Z,91.66
2023-04-17T04:01:10.925Z,91.26
2023-04-17T04:06:12.756Z,91.23
2023-04-17T04:11:14.712Z,92.15
2023-04-17T04:16:16.618Z,91.77
2023-04-17T04:21:18.387Z,92.75
2023-04-17T04:26:21.685Z,91.48
2023-04-17T04:31:25.553Z,91.83
2023-04-17T04:36:29.845Z,92.03
2023-04-17T04:41:33.898Z,91.92
2023-04-17T04:46:35.780Z,92.21
2023-04-17T04:51:38.299Z,91.44
2023-04-17T04:56:40.154Z,91.63
2023-04-17T05:01:42.088Z,91.06
2023-04-17T05:06:43.930Z,91.00
2023-04-17T05:11:45.743Z,91.52
2023-04-17T05:16:47.547Z,90.93
2023-04-17T05:21:49.419Z,90.79
2023-04-17T05:26:51.259Z,90.50
2023-04-17T05:31:53.289Z,90.38
2023-04-17T05:36:55.721Z,91.06
2023-04-17T05:41:57.964Z,90.54
2023-04-17T05:47:00.223Z,90.93
2023-04-17T05:52:02.188Z,90.53
2023-04-17T05:57:04.132Z,90.47
2023-04-17T06:02:07.634Z,89.86
2023-04-17T06:07:11.423Z,90.62
2023-04-17T06:12:16.080Z,90.52
2023-04-17T06:17:17.986Z,89.84
2023-04-17T06:22:19.864Z,90.48
2023-04-17T06:27:21.619Z,89.95
2023-04-17T06:32:23.545Z,90.06
2023-04-17T06:37:25.276Z,90.33
2023-04-17T06:42:28.090Z,89.68
2023-04-17T06:47:30.191Z,89.32
2023-04-17T06:52:32.092Z,87.97
2023-04-17T06:57:34.079Z,87.88
2023-04-17T07:02:36.001Z,85.72
2023-04-17T07:07:38.029Z,85.09
2023-04-17T07:12:39.754Z,85.71
2023-04-17T07:17:41.821Z,86.27
2023-04-17T07:22:43.630Z,84.45
2023-04-17T07:27:45.391Z,84.63
2023-04-17T07:32:47.247Z,83.77
2023-04-17T07:37:49.317Z,84.17
2023-04-17T07:42:51.025Z,84.81
2023-04-17T07:47:53.276Z,85.04
2023-04-17T07:52:55.879Z,84.95
2023-04-17T07:57:58.629Z,84.63
2023-04-17T08:03:02.225Z,81.92
2023-04-17T08:08:04.785Z,81.80
2023-04-17T08:13:06.720Z,81.86
2023-04-17T08:18:10.436Z,81.82
2023-04-17T08:23:12.258Z,79.54
2023-04-17T08:28:14.062Z,78.22
2023-04-17T08:33:18.073Z,77.38
2023-04-17T08:38:19.882Z,77.26
2023-04-17T08:43:23.787Z,76.59
2023-04-17T08:48:25.613Z,77.31
2023-04-17T08:53:27.400Z,77.27
2023-04-17T08:58:36.443Z,73.18
2023-04-17T09:03:48.867Z,69.04
2023-04-17T09:09:04.156Z,64.49
2023-04-17T09:14:05.891Z,62.25
2023-04-17T09:19:07.853Z,58.34
2023-04-17T09:24:10.008Z,55.31
2023-04-17T09:29:12.852Z,52.05
2023-04-17T09:34:16.387Z,53.78
2023-04-17T09:39:24.365Z,53.77
2023-04-17T09:44:29.914Z,52.93
2023-04-17T09:49:55.941Z,53.85
2023-04-17T09:55:06.774Z,51.63
2023-04-17T10:00:14.973Z,51.80
2023-04-17T10:05:18.089Z,53.41
2023-04-17T10:10:36.385Z,54.14
2023-04-17T10:15:39.647Z,54.17
2023-04-17T10:20:44.812Z,50.82
2023-04-17T10:25:46.729Z,49.95
2023-04-17T10:30:56.874Z,51.52
2023-04-17T10:35:58.712Z,48.99
2023-04-17T10:41:04.322Z,48.93
2023-04-17T10:46:14.156Z,48.73
2023-04-17T10:51:24.948Z,49.87
2023-04-17T10:56:48.578Z,50.86
2023-04-17T11:01:51.262Z,53.06
2023-04-17T11:06:54.082Z,51.78
2023-04-17T11:12:03.490Z,52.40
2023-04-17T11:17:05.376Z,53.05
2023-04-17T11:22:11.400Z,53.43
2023-04-17T11:27:14.471Z,55.87
2023-04-17T11:32:16.274Z,56.32
2023-04-17T11:37:18.062Z,55.40
2023-04-17T11:42:27.670Z,55.99
2023-04-17T11:47:29.712Z,55.05
2023-04-17T11:52:32.440Z,53.75
2023-04-17T11:57:45.596Z,51.08
2023-04-17T12:02:47.689Z,52.82
2023-04-17T12:08:07.473Z,54.43
2023-04-17T12:13:12.585Z,57.19
2023-04-17T12:18:14.453Z,58.99
2023-04-17T12:23:16.497Z,58.63
2023-04-17T12:28:18.451Z,59.39
2023-04-17T12:33:20.336Z,61.84
2023-04-17T12:38:23.352Z,64.49
2023-04-17T12:43:25.347Z,65.09
2023-04-17T12:48:27.380Z,64.63
2023-04-17T12:53:30.020Z,65.80
2023-04-17T12:58:32.919Z,65.68
2023-04-17T13:03:34.964Z,64.87
2023-04-17T13:08:36.910Z,62.76
2023-04-17T13:13:38.684Z,64.46
2023-04-17T13:18:40.436Z,63.82
2023-04-17T13:23:42.241Z,65.14
2023-04-17T13:28:44.034Z,64.94
2023-04-17T13:33:45.936Z,64.49
2023-04-17T13:38:47.674Z,65.56
2023-04-17T13:43:49.472Z,65.97
2023-04-17T13:48:51.331Z,66.88
2023-04-17T13:53:53.891Z,67.63
2023-04-17T13:58:56.090Z,66.73
2023-04-17T14:04:00.762Z,68.82
2023-04-17T14:09:03.147Z,71.27
2023-04-17T14:14:05.442Z,72.46
2023-04-17T14:19:14.187Z,75.40
2023-04-17T14:24:16.695Z,75.80
2023-04-17T14:29:18.613Z,76.19
2023-04-17T14:34:20.441Z,78.13
2023-04-17T14:39:22.178Z,78.44
2023-04-17T14:44:23.970Z,79.51
2023-04-17T14:49:25.785Z,78.73
2023-04-17T14:54:27.966Z,78.36
2023-04-17T14:59:30.043Z,77.88
2023-04-17T15:04:31.819Z,78.07
2023-04-17T15:09:33.661Z,80.61
2023-04-17T15:14:35.472Z,82.16
2023-04-17T15:19:37.213Z,84.20
2023-04-17T15:24:38.965Z,85.29
2023-04-17T15:29:41.433Z,85.36
2023-04-17T15:34:43.554Z,87.51
2023-04-17T15:39:45.502Z,87.40
2023-04-17T15:44:47.290Z,85.71
2023-04-17T15:49:49.312Z,87.66
2023-04-17T15:54:51.167Z,88.96
2023-04-17T15:59:52.914Z,89.35
2023-04-17T16:04:54.718Z,89.63
2023-04-17T16:09:56.579Z,89.85
2023-04-17T16:14:58.386Z,88.74
2023-04-17T16:20:00.256Z,90.36
2023-04-17T16:25:02.009Z,90.69
2023-04-17T16:30:05.240Z,90.77
2023-04-17T16:35:07.775Z,89.92
2023-04-17T16:40:11.540Z,89.14
2023-04-17T16:45:13.424Z,90.17
2023-04-17T16:50:15.176Z,90.29
2023-04-17T16:55:17.061Z,90.06
2023-04-17T17:00:19.215Z,91.50
2023-04-17T17:05:21.523Z,92.06
2023-04-17T17:10:23.473Z,92.39
2023-04-17T17:15:25.344Z,92.79
2023-04-17T17:20:27.357Z,93.60
2023-04-17T17:25:29.229Z,93.79
2023-04-17T17:30:31.012Z,94.50
2023-04-17T17:35:33.589Z,93.08
2023-04-17T17:40:36.658Z,93.20
2023-04-17T17:45:39.367Z,93.97
2023-04-17T17:50:42.850Z,93.56
2023-04-17T17:55:55.133Z,93.90
2023-04-17T18:00:56.894Z,93.86
2023-04-17T18:05:58.652Z,93.65
2023-04-17T18:11:03.990Z,93.63
2023-04-17T18:16:06.593Z,93.10
2023-04-17T18:21:09.481Z,94.03
2023-04-17T18:26:12.862Z,93.93
2023-04-17T18:31:16.609Z,93.76
2023-04-17T18:36:18.750Z,94.36
2023-04-17T18:41:21.417Z,93.87
2023-04-17T18:46:24.405Z,94.82
2023-04-17T18:51:26.220Z,95.87
2023-04-17T18:56:28.083Z,95.91
2023-04-17T19:01:29.942Z,96.16
2023-04-17T19:06:31.845Z,95.65
2023-04-17T19:11:33.747Z,96.38
2023-04-17T19:16:35.660Z,96.66
2023-04-17T19:21:37.652Z,96.08
2023-04-17T19:26:39.425Z,96.51
2023-04-17T19:31:41.743Z,97.17
2023-04-17T19:36:44.075Z,96.74
2023-04-17T19:41:50.791Z,97.59
2023-04-17T19:46:52.812Z,96.74
2023-04-17T19:51:54.587Z,97.63
2023-04-17T19:56:56.424Z,96.73
2023-04-17T20:01:58.268Z,97.54
2023-04-17T20:07:01.147Z,97.53
2023-04-17T20:12:03.504Z,97.38
2023-04-17T20:17:05.412Z,97.37
2023-04-17T20:22:08.515Z,96.72
2023-04-17T20:27:10.368Z,97.71
2023-04-17T20:32:12.193Z,97.03
2023-04-17T20:37:13.969Z,97.03
2023-04-17T20:42:15.772Z,96.80
2023-04-17T20:47:17.585Z,96.26
2023-04-17T20:52:19.349Z,96.22
2023-04-17T20:57:21.204Z,96.52
2023-04-17T21:02:23.188Z,95.95
2023-04-17T21:07:25.019Z,95.96
2023-04-17T21:12:26.812Z,95.39
2023-04-17T21:17:28.818Z,95.20
2023-04-17T21:22:30.648Z,95.05
2023-04-17T21:27:32.528Z,94.75
2023-04-17T21:32:34.419Z,94.86
2023-04-17T21:37:36.235Z,94.34
2023-04-17T21:42:37.985Z,93.90
2023-04-17T21:47:53.408Z,93.93
2023-04-17T21:52:59.320Z,93.92
2023-04-17T21:58:21.666Z,93.28
2023-04-17T22:03:31.126Z,93.12
2023-04-17T22:08:52.532Z,94.20
2023-04-17T22:13:58.204Z,93.02
2023-04-17T22:19:06.271Z,93.57
2023-04-17T22:24:15.440Z,93.06
2023-04-17T22:29:27.027Z,93.54
2023-04-17T22:34:36.330Z,92.95
2023-04-17T22:39:44.849Z,92.53
2023-04-17T22:44:51.508Z,93.10
2023-04-17T22:49:54.515Z,92.96
2023-04-17T22:54:56.444Z,92.91
2023-04-17T22:59:58.191Z,92.61
2023-04-17T23:04:59.962Z,92.70
2023-04-17T23:10:01.945Z,92.19
2023-04-17T23:15:04.554Z,92.77
2023-04-17T23:20:07.329Z,92.69
2023-04-17T23:25:09.898Z,92.65
2023-04-17T23:30:12.682Z,92.78
2023-04-17T23:35:14.445Z,92.78
2023-04-17T23:40:16.462Z,92.41
2023-04-17T23:45:18.373Z,92.56
2023-04-17T23:50:20.250Z,92.93
2023-04-17T23:55:28.217Z,93.28
